createdAt,value
2019-05-06T00:02:44.927Z,3.90
2019-05-06T00:05:54.293Z,4.50
2019-05-06T00:09:03.928Z,3.97
2019-05-06T00:12:11.312Z,3.57
2019-05-06T00:15:18.907Z,4.07
2019-05-06T00:18:26.944Z,3.23
2019-05-06T00:21:35.475Z,4.00
2019-05-06T00:24:49.777Z,3.93
2019-05-06T00:28:15.532Z,3.40
2019-05-06T00:31:24.105Z,3.67
2019-05-06T00:34:34.066Z,3.73
2019-05-06T00:37:44.133Z,3.43
2019-05-06T00:40:54.868Z,4.13
2019-05-06T00:44:04.058Z,3.70
2019-05-06T00:47:13.468Z,4.27
2019-05-06T00:50:20.799Z,3.73
2019-05-06T00:53:30.496Z,3.77
2019-05-06T00:56:37.782Z,4.97
2019-05-06T00:59:44.995Z,4.37
2019-05-06T01:02:54.286Z,4.53
2019-05-06T01:06:03.883Z,4.40
2019-05-06T01:09:14.159Z,4.40
2019-05-06T01:12:23.971Z,4.63
2019-05-06T01:15:34.259Z,5.37
2019-05-06T01:18:43.441Z,4.10
2019-05-06T01:21:51.211Z,4.40
2019-05-06T01:24:58.781Z,4.33
2019-05-06T01:28:06.508Z,4.20
2019-05-06T01:31:14.344Z,4.67
2019-05-06T01:34:24.543Z,4.53
2019-05-06T01:37:34.588Z,4.30
2019-05-06T01:40:51.714Z,4.40
2019-05-06T01:43:59.242Z,4.50
2019-05-06T01:47:08.913Z,4.37
2019-05-06T01:50:16.566Z,4.73
2019-05-06T01:53:24.236Z,4.80
2019-05-06T01:56:33.714Z,4.97
2019-05-06T01:59:41.221Z,4.93
2019-05-06T02:02:49.047Z,5.30
2019-05-06T02:05:56.613Z,5.23
2019-05-06T02:09:14.336Z,5.30
2019-05-06T02:12:21.834Z,5.80
2019-05-06T02:15:29.384Z,5.13
2019-05-06T02:18:36.895Z,5.43
2019-05-06T02:22:04.229Z,5.93
2019-05-06T02:25:16.239Z,5.73
2019-05-06T02:28:23.694Z,6.17
2019-05-06T02:32:24.568Z,5.90
2019-05-06T02:35:26.276Z,6.63
2019-05-06T02:38:39.760Z,6.17
2019-05-06T02:41:42.976Z,7.20
2019-05-06T02:44:53.332Z,7.00
2019-05-06T02:48:22.718Z,6.70
2019-05-06T02:51:33.331Z,6.40
2019-05-06T02:54:42.571Z,7.33
2019-05-06T02:57:49.310Z,6.50
2019-05-06T03:00:56.706Z,6.73
2019-05-06T03:04:04.831Z,5.77
2019-05-06T03:07:14.506Z,6.33
2019-05-06T03:10:24.783Z,6.87
2019-05-06T03:13:33.960Z,7.27
2019-05-06T03:16:43.692Z,6.63
2019-05-06T03:19:52.668Z,7.47
2019-05-06T03:23:05.000Z,6.53
2019-05-06T03:26:13.708Z,6.73
2019-05-06T03:29:21.574Z,7.50
2019-05-06T03:32:36.051Z,7.93
2019-05-06T03:35:56.452Z,6.93
2019-05-06T03:38:47.391Z,7.37
2019-05-06T03:41:54.985Z,7.77
2019-05-06T03:45:09.526Z,7.53
2019-05-06T03:48:23.932Z,7.10
2019-05-06T03:51:34.270Z,7.10
2019-05-06T03:54:45.001Z,7.43
2019-05-06T03:57:55.085Z,7.63
2019-05-06T04:01:03.857Z,7.10
2019-05-06T04:04:12.809Z,7.63
2019-05-06T04:07:23.377Z,8.67
2019-05-06T04:10:33.698Z,7.80
2019-05-06T04:13:40.428Z,7.60
2019-05-06T04:16:54.158Z,7.50
2019-05-06T04:20:12.782Z,8.70
2019-05-06T04:23:49.001Z,7.90
2019-05-06T04:27:46.987Z,8.47
2019-05-06T04:30:57.432Z,7.33
2019-05-06T04:34:13.929Z,7.83
2019-05-06T04:37:16.369Z,7.40
2019-05-06T04:40:24.185Z,7.43
2019-05-06T04:43:33.589Z,8.03
2019-05-06T04:46:44.396Z,7.50
2019-05-06T04:49:53.073Z,7.60
2019-05-06T04:53:05.297Z,7.13
2019-05-06T04:56:14.308Z,7.10
2019-05-06T04:59:23.154Z,6.37
2019-05-06T05:02:33.656Z,6.70
2019-05-06T05:05:40.533Z,7.47
2019-05-06T05:08:48.307Z,7.07
2019-05-06T05:12:02.523Z,6.57
2019-05-06T05:15:32.509Z,7.27
2019-05-06T05:18:44.264Z,6.00
2019-05-06T05:21:54.707Z,6.03
2019-05-06T05:25:03.431Z,6.20
2019-05-06T05:28:13.150Z,5.60
2019-05-06T05:31:22.890Z,5.13
2019-05-06T05:34:37.948Z,5.73
2019-05-06T05:37:39.479Z,5.80
2019-05-06T05:40:47.186Z,6.40
2019-05-06T05:44:09.544Z,5.17
2019-05-06T05:47:17.199Z,4.83
2019-05-06T05:50:29.445Z,5.13
2019-05-06T05:53:37.337Z,5.07
2019-05-06T05:56:44.879Z,5.87
2019-05-06T05:59:52.877Z,5.37
2019-05-06T06:03:02.764Z,5.60
2019-05-06T06:06:12.469Z,4.77
2019-05-06T06:09:22.386Z,4.87
2019-05-06T06:12:32.337Z,5.20
2019-05-06T06:15:59.309Z,4.80
2019-05-06T06:19:22.143Z,4.50
2019-05-06T06:22:30.387Z,4.30
2019-05-06T06:25:38.169Z,4.13
2019-05-06T06:28:45.899Z,3.63
2019-05-06T06:32:16.081Z,3.80
2019-05-06T06:35:32.326Z,3.50
2019-05-06T06:38:53.124Z,3.73
2019-05-06T06:42:02.842Z,3.63
2019-05-06T06:45:12.313Z,3.87
2019-05-06T06:48:19.948Z,2.90
2019-05-06T06:51:27.281Z,3.20
2019-05-06T06:54:34.734Z,2.80
2019-05-06T06:57:51.927Z,3.10
2019-05-06T07:01:17.973Z,3.30
2019-05-06T07:04:46.359Z,3.57
2019-05-06T07:07:54.052Z,3.10
2019-05-06T07:11:02.215Z,2.43
2019-05-06T07:14:09.828Z,2.43
2019-05-06T07:17:17.444Z,2.47
2019-05-06T07:20:26.924Z,2.47
2019-05-06T07:23:35.140Z,2.17
2019-05-06T07:26:47.017Z,1.83
2019-05-06T07:29:54.308Z,1.40
2019-05-06T07:33:03.647Z,1.40
2019-05-06T07:36:13.020Z,1.43
2019-05-06T07:39:23.744Z,1.70
2019-05-06T07:42:36.850Z,1.27
2019-05-06T07:45:47.655Z,1.50
2019-05-06T07:48:55.340Z,1.20
2019-05-06T07:52:03.096Z,1.73
2019-05-06T07:55:12.004Z,1.27
2019-05-06T07:58:19.319Z,1.60
2019-05-06T08:01:26.497Z,1.37
2019-05-06T08:04:34.054Z,1.70
2019-05-06T08:07:42.261Z,6.77
2019-05-06T08:10:49.964Z,1.43
2019-05-06T08:13:57.466Z,2.50
2019-05-06T08:17:06.684Z,1.63
2019-05-06T08:20:14.734Z,1.40
2019-05-06T08:23:42.689Z,0.93
2019-05-06T08:26:52.093Z,1.00
2019-05-06T08:29:59.255Z,2.00
2019-05-06T08:33:06.922Z,1.23
2019-05-06T08:36:22.455Z,1.40
2019-05-06T08:39:29.781Z,1.30
2019-05-06T08:42:37.382Z,1.90
2019-05-06T08:45:45.103Z,1.70
2019-05-06T08:48:52.942Z,1.00
2019-05-06T08:52:05.321Z,1.30
2019-05-06T08:55:15.152Z,1.60
2019-05-06T08:58:43.154Z,2.07
2019-05-06T09:01:53.345Z,1.77
2019-05-06T09:05:02.746Z,1.80
2019-05-06T09:08:09.673Z,1.30
2019-05-06T09:11:17.105Z,1.40
2019-05-06T09:14:24.601Z,1.00
2019-05-06T09:17:33.002Z,1.30
2019-05-06T09:20:43.024Z,1.00
2019-05-06T09:23:49.824Z,1.20
2019-05-06T09:27:15.096Z,1.20
2019-05-06T09:30:43.873Z,0.90
2019-05-06T09:33:58.947Z,1.20
2019-05-06T09:37:17.696Z,1.70
2019-05-06T09:40:25.502Z,1.50
2019-05-06T09:43:33.194Z,1.57
2019-05-06T09:46:42.681Z,1.57
2019-05-06T09:49:50.111Z,1.17
2019-05-06T09:52:57.399Z,1.47
2019-05-06T09:56:23.151Z,1.33
2019-05-06T09:59:32.197Z,2.00
2019-05-06T10:02:39.600Z,2.10
2019-05-06T10:05:46.983Z,1.30
2019-05-06T10:08:54.453Z,1.30
2019-05-06T10:12:02.411Z,1.80
2019-05-06T10:15:12.597Z,1.60
2019-05-06T10:18:19.817Z,1.60
2019-05-06T10:21:27.419Z,1.50
2019-05-06T10:24:35.024Z,1.53
2019-05-06T10:27:46.294Z,1.90
2019-05-06T10:30:53.903Z,1.43
2019-05-06T10:34:14.006Z,0.87
2019-05-06T10:37:44.228Z,1.07
2019-05-06T10:41:03.676Z,1.00
2019-05-06T10:44:45.342Z,1.03
2019-05-06T10:47:53.908Z,1.17
2019-05-06T10:51:13.081Z,0.90
2019-05-06T10:54:19.320Z,1.00
2019-05-06T10:57:32.772Z,0.90
2019-05-06T11:00:42.544Z,1.00
2019-05-06T11:03:49.844Z,1.30
2019-05-06T11:06:56.996Z,1.00
2019-05-06T11:10:04.627Z,1.10
2019-05-06T11:13:12.948Z,1.00
2019-05-06T11:16:23.725Z,1.03
2019-05-06T11:19:29.997Z,0.90
2019-05-06T11:22:37.495Z,1.13
2019-05-06T11:25:44.663Z,0.90
2019-05-06T11:28:56.441Z,0.77
2019-05-06T11:32:10.208Z,0.80
2019-05-06T11:35:52.558Z,0.90
2019-05-06T11:38:58.802Z,0.97
2019-05-06T11:42:23.899Z,0.83
2019-05-06T11:45:15.823Z,1.00
2019-05-06T11:48:22.983Z,0.93
2019-05-06T11:51:32.993Z,1.13
2019-05-06T11:54:42.267Z,0.80
2019-05-06T11:57:49.650Z,1.37
2019-05-06T12:01:02.572Z,1.10
2019-05-06T12:04:09.110Z,1.20
2019-05-06T12:07:17.634Z,1.07
2019-05-06T12:10:25.093Z,1.20
2019-05-06T12:13:33.837Z,1.20
2019-05-06T12:16:41.545Z,1.10
2019-05-06T12:19:48.831Z,1.50
2019-05-06T12:22:56.063Z,1.27
2019-05-06T12:26:03.503Z,1.20
2019-05-06T12:29:12.718Z,0.90
2019-05-06T12:32:35.615Z,1.07
2019-05-06T12:35:46.671Z,1.20
2019-05-06T12:39:15.801Z,1.13
2019-05-06T12:42:34.594Z,0.80
2019-05-06T12:45:43.910Z,1.13
2019-05-06T12:48:52.159Z,1.07
2019-05-06T12:51:59.450Z,1.40
2019-05-06T12:55:18.389Z,1.00
2019-05-06T12:58:21.094Z,1.07
2019-05-06T13:01:27.541Z,1.23
2019-05-06T13:04:49.479Z,1.00
2019-05-06T13:07:46.730Z,0.93
2019-05-06T13:10:54.895Z,1.53
2019-05-06T13:14:04.187Z,0.93
2019-05-06T13:17:13.710Z,1.20
2019-05-06T13:20:22.881Z,0.90
2019-05-06T13:23:39.090Z,0.93
2019-05-06T13:26:46.361Z,1.03
2019-05-06T13:29:53.924Z,1.27
2019-05-06T13:33:08.587Z,1.20
2019-05-06T13:36:17.012Z,1.27
2019-05-06T13:39:24.489Z,0.97
2019-05-06T13:42:33.933Z,1.30
2019-05-06T13:45:44.293Z,1.00
2019-05-06T13:49:14.242Z,1.20
2019-05-06T13:52:25.125Z,1.43
2019-05-06T13:55:33.089Z,1.30
2019-05-06T13:58:42.956Z,1.17
2019-05-06T14:02:08.180Z,1.20
2019-05-06T14:05:16.697Z,1.13
2019-05-06T14:08:24.620Z,1.00
2019-05-06T14:11:32.543Z,1.30
2019-05-06T14:14:42.957Z,1.33
2019-05-06T14:17:49.535Z,1.57
2019-05-06T14:20:56.918Z,1.23
2019-05-06T14:24:04.530Z,1.20
2019-05-06T14:27:13.813Z,1.43
2019-05-06T14:30:39.663Z,1.57
2019-05-06T14:33:47.125Z,1.10
2019-05-06T14:36:54.499Z,0.87
2019-05-06T14:40:04.140Z,0.97
2019-05-06T14:43:13.421Z,1.07
2019-05-06T14:46:22.837Z,1.57
2019-05-06T14:49:32.598Z,2.10
2019-05-06T14:52:42.488Z,1.27
2019-05-06T14:55:51.436Z,1.43
2019-05-06T14:59:07.980Z,1.00
2019-05-06T15:02:16.532Z,1.73
2019-05-06T15:05:24.255Z,1.30
2019-05-06T15:08:32.219Z,1.53
2019-05-06T15:11:40.071Z,2.27
2019-05-06T15:14:47.965Z,1.50
2019-05-06T15:17:55.439Z,1.43
2019-05-06T15:21:32.241Z,2.13
2019-05-06T15:24:21.894Z,1.70
2019-05-06T15:27:30.190Z,1.77
2019-05-06T15:30:47.442Z,1.37
2019-05-06T15:33:58.090Z,1.33
2019-05-06T15:37:15.109Z,1.30
2019-05-06T15:40:31.825Z,1.13
2019-05-06T15:43:33.546Z,1.20
2019-05-06T15:46:43.032Z,1.23
2019-05-06T15:49:52.634Z,1.30
2019-05-06T15:53:01.925Z,2.00
2019-05-06T15:56:09.580Z,2.10
2019-05-06T15:59:18.051Z,3.20
2019-05-06T16:02:25.593Z,2.17
2019-05-06T16:05:34.514Z,1.70
2019-05-06T16:08:43.200Z,1.53
2019-05-06T16:11:53.421Z,1.20
2019-05-06T16:15:02.584Z,2.00
2019-05-06T16:18:12.790Z,1.97
2019-05-06T16:21:22.868Z,1.10
2019-05-06T16:24:38.194Z,1.27
2019-05-06T16:27:53.822Z,1.70
2019-05-06T16:30:59.876Z,1.20
2019-05-06T16:34:07.088Z,1.20
2019-05-06T16:37:14.533Z,1.40
2019-05-06T16:40:23.089Z,1.53
2019-05-06T16:43:33.686Z,1.60
2019-05-06T16:46:42.645Z,1.30
2019-05-06T16:49:53.021Z,1.40
2019-05-06T16:53:02.531Z,1.33
2019-05-06T16:56:38.360Z,1.57
2019-05-06T16:59:45.962Z,1.50
2019-05-06T17:03:02.971Z,1.50
2019-05-06T17:06:16.747Z,1.80
2019-05-06T17:09:27.538Z,1.40
2019-05-06T17:12:33.357Z,1.43
2019-05-06T17:15:40.773Z,1.53
2019-05-06T17:18:48.274Z,1.60
2019-05-06T17:21:55.536Z,2.03
2019-05-06T17:25:03.161Z,1.80
2019-05-06T17:28:22.268Z,1.73
2019-05-06T17:31:52.453Z,2.33
2019-05-06T17:35:02.604Z,2.47
2019-05-06T17:38:14.732Z,3.97
2019-05-06T17:41:23.780Z,2.37
2019-05-06T17:44:32.347Z,3.40
2019-05-06T17:47:47.395Z,4.23
2019-05-06T17:51:13.728Z,3.00
2019-05-06T17:54:24.086Z,3.60
2019-05-06T17:57:33.118Z,5.83
2019-05-06T18:00:42.775Z,4.53
2019-05-06T18:03:52.534Z,3.43
2019-05-06T18:06:59.886Z,3.33
2019-05-06T18:10:07.564Z,2.67
2019-05-06T18:13:14.989Z,2.60
2019-05-06T18:16:22.405Z,2.97
2019-05-06T18:19:29.963Z,2.83
2019-05-06T18:22:37.901Z,2.93
2019-05-06T18:25:45.363Z,3.03
2019-05-06T18:28:53.016Z,2.87
2019-05-06T18:32:36.051Z,2.53
2019-05-06T18:35:44.695Z,3.37
2019-05-06T18:38:52.713Z,2.70
2019-05-06T18:42:14.940Z,3.03
2019-05-06T18:45:12.461Z,2.37
2019-05-06T18:48:21.834Z,2.00
2019-05-06T18:51:30.464Z,1.93
2019-05-06T18:54:38.167Z,2.27
2019-05-06T18:57:45.649Z,3.10
2019-05-06T19:00:53.346Z,2.57
2019-05-06T19:04:08.131Z,3.30
2019-05-06T19:07:17.151Z,3.17
2019-05-06T19:10:29.678Z,3.10
2019-05-06T19:13:37.380Z,2.40
2019-05-06T19:16:49.875Z,3.20
2019-05-06T19:19:54.206Z,2.80
2019-05-06T19:23:02.444Z,3.13
2019-05-06T19:26:12.309Z,4.03
2019-05-06T19:29:19.786Z,3.13
2019-05-06T19:32:27.760Z,3.20
2019-05-06T19:35:37.122Z,2.70
2019-05-06T19:38:45.451Z,2.80
2019-05-06T19:41:52.990Z,3.37
2019-05-06T19:45:02.461Z,2.57
2019-05-06T19:48:13.363Z,4.50
2019-05-06T19:51:22.537Z,3.23
2019-05-06T19:54:30.490Z,3.90
2019-05-06T19:57:38.139Z,3.20
2019-05-06T20:00:46.771Z,5.00
2019-05-06T20:03:54.449Z,3.10
2019-05-06T20:07:22.842Z,5.57
2019-05-06T20:10:38.459Z,5.57
2019-05-06T20:13:47.172Z,4.43
2019-05-06T20:16:54.711Z,2.80
2019-05-06T20:20:03.137Z,3.50
2019-05-06T20:23:12.583Z,3.33
2019-05-06T20:26:21.972Z,3.43
2019-05-06T20:29:32.406Z,3.07
2019-05-06T20:32:39.905Z,3.93
2019-05-06T20:35:47.391Z,3.40
2019-05-06T20:38:55.379Z,2.87
2019-05-06T20:42:03.044Z,2.60
2019-05-06T20:45:12.849Z,2.63
2019-05-06T20:48:20.435Z,2.47
2019-05-06T20:51:27.744Z,2.07
2019-05-06T20:54:35.464Z,2.07
2019-05-06T20:57:42.860Z,2.13
2019-05-06T21:00:52.147Z,1.90
2019-05-06T21:04:02.071Z,1.77
2019-05-06T21:07:09.580Z,2.23
2019-05-06T21:10:17.396Z,2.00
2019-05-06T21:13:31.753Z,1.93
2019-05-06T21:16:35.078Z,2.30
2019-05-06T21:19:42.661Z,2.57
2019-05-06T21:22:52.639Z,2.30
2019-05-06T21:26:00.385Z,3.20
2019-05-06T21:29:07.920Z,2.70
2019-05-06T21:32:15.357Z,3.20
2019-05-06T21:35:22.990Z,2.70
2019-05-06T21:38:30.262Z,2.70
2019-05-06T21:41:37.738Z,3.00
2019-05-06T21:44:45.144Z,2.63
2019-05-06T21:47:53.027Z,2.90
2019-05-06T21:51:00.492Z,3.30
2019-05-06T21:54:07.696Z,2.70
2019-05-06T21:57:15.284Z,2.50
2019-05-06T22:00:37.935Z,2.63
2019-05-06T22:03:45.571Z,2.70
2019-05-06T22:06:53.551Z,2.70
2019-05-06T22:10:00.873Z,2.70
2019-05-06T22:13:08.930Z,2.50
2019-05-06T22:16:16.633Z,2.67
2019-05-06T22:19:24.421Z,2.27
2019-05-06T22:22:32.810Z,2.90
2019-05-06T22:25:40.292Z,2.17
2019-05-06T22:28:47.957Z,2.13
2019-05-06T22:31:55.852Z,2.23
2019-05-06T22:35:04.704Z,2.50
2019-05-06T22:38:12.402Z,2.53
2019-05-06T22:41:20.200Z,2.43
2019-05-06T22:44:28.511Z,2.23
2019-05-06T22:47:36.306Z,2.13
2019-05-06T22:50:43.576Z,1.97
2019-05-06T22:53:53.232Z,2.57
2019-05-06T22:57:02.335Z,1.93
2019-05-06T23:00:17.212Z,2.53
2019-05-06T23:03:25.670Z,1.60
2019-05-06T23:06:33.146Z,1.60
2019-05-06T23:09:42.519Z,1.60
2019-05-06T23:12:52.176Z,1.80
2019-05-06T23:15:59.311Z,1.67
2019-05-06T23:19:07.053Z,1.60
2019-05-06T23:22:14.412Z,1.50
2019-05-06T23:25:22.139Z,1.87
2019-05-06T23:28:29.319Z,1.70
2019-05-06T23:31:37.160Z,1.80
2019-05-06T23:34:44.535Z,1.70
2019-05-06T23:38:47.597Z,2.00
2019-05-06T23:42:52.672Z,1.93
2019-05-06T23:46:55.694Z,1.57
2019-05-06T23:50:59.348Z,1.53
2019-05-06T23:55:03.259Z,1.63
2019-05-06T23:58:09.583Z,1.70
